Meteo Giornale » Osservazioni meteo Italia » Treviso-Istrana

ore: 04:55 - Osservazioni Meteo Treviso-Istrana
Lat. 45° 41' N Lon. 12° 6' E Alt. 45 metri s.l.m.

sereno Europe/Rome

4 °C

Sereno

Temp. 24 Ore

4 °C

14 °C

Nord

3.7 Km/h

Dew point 3 °C

Umidità 93 %

Visibilità  10 Km

Il sole sorge alle ore 07:15

Il sole tramonta alle ore 16:38

Data e Ora Cielo e Fenomeni T °C DP °C Um. % Pres. hPa Vis. km Vento km/h
Oggi h: 04:55 sereno Sereno 4 3 93 1014 10 N 3.7
Oggi h: 03:55 sereno Sereno 5 3 86 1015 10 N 5.5
Oggi h: 02:55 sereno Sereno 5 3 86 1015 10 N 3.7
Oggi h: 01:55 sereno Sereno 5 3 86 1016 10 NE 7.4
Oggi h: 00:55 sereno Sereno 5 3 86 1016 10 NE 7.4
Ieri h: 23:55 sereno Sereno 5 4 93 1016 10 NE 11.1
Ieri h: 22:55 sereno Sereno 5 4 93 1016 9 NE 9.3
Ieri h: 21:55 sereno Sereno 5 4 93 1016 8 N 0
Ieri h: 20:55 sereno Sereno 5 4 93 1016 8 N 0
Ieri h: 19:55 sereno Sereno 6 5 93 1016 9 N 1.8
Ieri h: 18:55 poco_nuvoloso Poco Nuvoloso 7 6 93 1017 10 N 1.8
Ieri h: 17:55 sereno Sereno 9 7 87 1017 10 N 3.7
Ieri h: 16:55 sereno Sereno 11 7 76 1017 10 N 1.8
Ieri h: 15:55 sereno Sereno 13 7 66 1017 10 O 7.4
Ieri h: 14:55 sereno Sereno 14 7 62 1017 10 N 5.5
Ieri h: 13:55 sereno Sereno 14 6 58 1017 10 N 3.7
Ieri h: 12:55 sereno Sereno 13 5 58 1018 10 N 3.7
Ieri h: 11:55 poco_nuvoloso Poco Nuvoloso 12 4 57 1018 10 N 3.7
Ieri h: 10:55 poco_nuvoloso Poco Nuvoloso 11 5 66 1018 10 N 1.8
Ieri h: 09:55 poco_nuvoloso Poco Nuvoloso 8 6 87 1019 10 N 5.5
Ieri h: 06:55 sereno Sereno 4 3 93 1017 10 N 0
Ieri h: 05:55 sereno Sereno 5 3 86 1017 10 N 7.4